Time;durP1;ratioP1;P1;durP2;ratioP2;P2;SDS_P1;SDS_P2;PMS_P1;PMS_P2;Temp;Humidity;BMP_temperature;BMP_pressure;BME280_temperature;BME280_humidity;BME280_pressure;Samples;Min_cycle;Max_cycle;Signal;HPM_P1;HPM_P2
2023/12/02 00:02:07;;;;;;;2.65;2.33;;;0.60;99.90;;;;;;5031359;28;20105;-74
2023/12/02 00:04:32;;;;;;;3.60;2.78;;;0.60;99.90;;;;;;5032511;28;20378;-73
2023/12/02 00:06:58;;;;;;;2.90;2.40;;;0.60;99.90;;;;;;5056539;28;20262;-73
2023/12/02 00:09:24;;;;;;;1.50;1.40;;;0.60;99.90;;;;;;5045179;28;20025;-73
2023/12/02 00:11:50;;;;;;;2.33;2.13;;;0.60;99.90;;;;;;5032640;28;20052;-73
2023/12/02 00:14:16;;;;;;;1.95;1.85;;;0.50;99.90;;;;;;5044132;28;20166;-73
2023/12/02 00:16:41;;;;;;;2.30;1.83;;;0.60;99.90;;;;;;5029190;28;20033;-73
2023/12/02 00:19:07;;;;;;;1.55;1.10;;;0.50;99.90;;;;;;5022562;28;20025;-72
2023/12/02 00:21:33;;;;;;;2.97;2.67;;;0.50;99.90;;;;;;5038916;28;20440;-73
2023/12/02 00:23:59;;;;;;;2.85;2.17;;;0.40;99.90;;;;;;5042742;28;20055;-73
2023/12/02 00:26:24;;;;;;;2.75;1.40;;;0.40;99.90;;;;;;5055633;28;20124;-73
2023/12/02 00:28:50;;;;;;;1.40;1.27;;;0.40;99.90;;;;;;5040053;28;20116;-74
2023/12/02 00:31:16;;;;;;;4.38;2.40;;;0.40;99.90;;;;;;5016599;28;20033;-73
2023/12/02 00:33:42;;;;;;;1.60;1.50;;;0.40;99.90;;;;;;5020332;28;20374;-73
2023/12/02 00:36:08;;;;;;;3.05;1.23;;;0.40;99.90;;;;;;5013747;28;20032;-73
2023/12/02 00:38:34;;;;;;;1.52;1.42;;;0.40;99.90;;;;;;5020410;28;20021;-73
2023/12/02 00:41:00;;;;;;;5.45;2.85;;;0.30;99.90;;;;;;5036242;28;20087;-73
2023/12/02 00:43:26;;;;;;;2.97;2.65;;;0.20;99.90;;;;;;5030846;28;20030;-74
2023/12/02 00:45:51;;;;;;;6.80;4.95;;;0.20;99.90;;;;;;5011748;28;20075;-73
2023/12/02 00:48:18;;;;;;;4.45;2.38;;;0.20;99.90;;;;;;5022120;28;20052;-73
2023/12/02 00:50:43;;;;;;;2.88;2.20;;;0.30;99.90;;;;;;5022815;28;20040;-73
2023/12/02 00:53:09;;;;;;;4.10;1.90;;;0.30;99.90;;;;;;5030566;28;20030;-73
2023/12/02 00:55:35;;;;;;;5.25;2.22;;;0.30;99.90;;;;;;5022955;28;20489;-72
2023/12/02 00:58:01;;;;;;;2.13;1.95;;;0.30;99.90;;;;;;5045434;28;20116;-72
2023/12/02 01:00:26;;;;;;;5.18;2.33;;;0.30;99.90;;;;;;5027929;28;20040;-73
2023/12/02 01:02:52;;;;;;;1.33;0.95;;;0.30;99.90;;;;;;5040028;28;20025;-72
2023/12/02 01:05:18;;;;;;;7.90;3.22;;;0.20;99.90;;;;;;5026554;28;20048;-73
2023/12/02 01:07:46;;;;;;;2.38;1.58;;;0.20;99.90;;;;;;5032436;28;20026;-74
2023/12/02 01:10:12;;;;;;;2.25;1.92;;;0.20;99.90;;;;;;5029610;28;20624;-73
2023/12/02 01:12:39;;;;;;;1.23;1.13;;;0.20;99.90;;;;;;5041042;28;20124;-73
2023/12/02 01:15:06;;;;;;;2.47;2.22;;;0.20;99.90;;;;;;5019406;28;20112;-72
2023/12/02 01:17:31;;;;;;;2.45;2.25;;;0.20;99.90;;;;;;5027191;28;20038;-72
2023/12/02 01:19:59;;;;;;;2.50;2.30;;;0.20;99.90;;;;;;5046295;28;20200;-73
2023/12/02 01:22:24;;;;;;;2.25;1.98;;;0.20;99.90;;;;;;5038681;28;20037;-73
2023/12/02 01:24:50;;;;;;;2.92;1.65;;;0.20;99.90;;;;;;5043339;28;20721;-73
2023/12/02 01:27:16;;;;;;;5.55;3.05;;;0.20;99.90;;;;;;5044385;28;20033;-73
2023/12/02 01:29:42;;;;;;;2.17;1.58;;;0.10;99.90;;;;;;5022583;28;20095;-73
2023/12/02 01:32:08;;;;;;;2.08;0.85;;;0.10;99.90;;;;;;5051391;28;20032;-73
2023/12/02 01:34:34;;;;;;;2.67;1.65;;;0.10;99.90;;;;;;5033438;28;20452;-73
2023/12/02 01:36:59;;;;;;;3.92;3.60;;;0.10;99.90;;;;;;5013836;28;20429;-73
2023/12/02 01:39:26;;;;;;;2.10;1.90;;;0.00;99.90;;;;;;5038931;28;20033;-73
2023/12/02 01:41:52;;;;;;;1.67;1.27;;;0.00;99.90;;;;;;5047864;28;20022;-73
2023/12/02 01:44:18;;;;;;;4.00;2.72;;;0.00;99.90;;;;;;5040787;28;20079;-73
2023/12/02 01:46:44;;;;;;;3.88;1.58;;;0.00;99.90;;;;;;5064577;28;20072;-73
2023/12/02 01:49:10;;;;;;;1.17;1.08;;;-0.10;99.90;;;;;;5020224;28;20375;-73
2023/12/02 01:51:37;;;;;;;2.53;2.35;;;-0.10;99.90;;;;;;5042242;28;20132;-73
2023/12/02 01:54:03;;;;;;;2.92;1.90;;;-0.10;99.90;;;;;;5033976;28;20084;-73
2023/12/02 01:56:29;;;;;;;0.22;0.22;;;-0.20;99.90;;;;;;5018092;28;20560;-73
2023/12/02 01:58:56;;;;;;;2.28;1.85;;;-0.20;99.90;;;;;;5036595;28;20064;-73
2023/12/02 02:01:21;;;;;;;2.50;1.73;;;-0.20;99.90;;;;;;5039264;28;20474;-73
2023/12/02 02:03:51;;;;;;;10.20;2.92;;;-0.10;99.90;;;;;;5016917;28;20040;-72
2023/12/02 02:06:16;;;;;;;4.00;1.80;;;-0.20;99.90;;;;;;5028645;28;20033;-73
2023/12/02 02:08:43;;;;;;;6.18;1.92;;;-0.30;99.90;;;;;;5037233;28;20108;-72
2023/12/02 02:11:09;;;;;;;1.00;1.00;;;-0.30;99.90;;;;;;5031308;28;20048;-72
2023/12/02 02:13:35;;;;;;;6.88;3.70;;;-0.40;99.90;;;;;;5033334;28;20029;-74
2023/12/02 02:16:01;;;;;;;4.47;0.98;;;-0.50;99.90;;;;;;5036616;28;20485;-73
2023/12/02 02:18:29;;;;;;;1.05;1.02;;;-0.50;99.90;;;;;;5025921;28;20028;-72
2023/12/02 02:20:54;;;;;;;0.90;0.77;;;-0.50;99.90;;;;;;5031552;28;20474;-72
2023/12/02 02:23:22;;;;;;;11.93;3.58;;;-0.50;99.90;;;;;;5036975;28;20036;-72
2023/12/02 02:25:52;;;;;;;1.85;1.75;;;-0.60;99.90;;;;;;5024913;28;20117;-72
2023/12/02 02:28:28;;;;;;;3.50;3.20;;;-0.50;99.90;;;;;;5039671;28;20029;-72
2023/12/02 02:30:54;;;;;;;4.55;1.02;;;-0.50;99.90;;;;;;5026076;28;20038;-73
2023/12/02 02:33:20;;;;;;;5.60;3.00;;;-0.50;99.90;;;;;;5037041;28;20398;-73
2023/12/02 02:35:47;;;;;;;3.17;1.63;;;-0.60;99.90;;;;;;5034252;28;20022;-73
2023/12/02 02:38:13;;;;;;;1.67;1.00;;;-0.60;99.90;;;;;;5033117;28;20052;-72
2023/12/02 02:40:39;;;;;;;0.88;0.85;;;-0.60;99.90;;;;;;5039299;28;20481;-73
2023/12/02 02:43:05;;;;;;;2.50;1.67;;;-0.60;99.90;;;;;;5046653;28;20029;-73
2023/12/02 02:45:31;;;;;;;1.05;0.95;;;-0.50;99.90;;;;;;5034130;28;20461;-73
2023/12/02 02:47:58;;;;;;;4.63;3.03;;;-0.50;99.90;;;;;;5024277;28;20068;-72
2023/12/02 02:50:24;;;;;;;3.05;1.27;;;-0.60;99.90;;;;;;5036537;28;20021;-73
2023/12/02 02:52:50;;;;;;;1.83;1.65;;;-0.60;99.90;;;;;;5049248;28;20066;-73
2023/12/02 02:55:16;;;;;;;4.50;1.13;;;-0.60;99.90;;;;;;5022295;28;20556;-72
2023/12/02 02:57:41;;;;;;;0.70;0.70;;;-0.60;99.90;;;;;;5028215;28;20069;-72
2023/12/02 03:00:11;;;;;;;5.03;1.83;;;-0.60;99.90;;;;;;5038083;28;20108;-73
2023/12/02 03:02:38;;;;;;;3.17;1.27;;;-0.70;99.90;;;;;;5033780;28;20022;-72
2023/12/02 03:05:05;;;;;;;3.30;1.75;;;-0.60;99.90;;;;;;5018667;28;20033;-73
2023/12/02 03:07:32;;;;;;;0.93;0.93;;;-0.60;99.90;;;;;;5039765;28;20032;-72
2023/12/02 03:09:58;;;;;;;0.80;0.77;;;-0.60;99.90;;;;;;5032202;28;20036;-73
2023/12/02 03:12:25;;;;;;;1.65;1.50;;;-0.60;99.90;;;;;;5040574;28;20064;-73
2023/12/02 03:14:51;;;;;;;8.60;3.38;;;-0.60;99.90;;;;;;5035137;28;20116;-73
2023/12/02 03:17:18;;;;;;;2.13;1.88;;;-0.60;99.90;;;;;;5021423;28;20026;-72
2023/12/02 03:19:44;;;;;;;1.20;1.17;;;-0.60;99.90;;;;;;5052719;28;20493;-72
2023/12/02 03:22:10;;;;;;;2.17;1.98;;;-0.70;99.90;;;;;;5045008;28;20017;-72
2023/12/02 03:24:36;;;;;;;2.05;1.00;;;-0.60;99.90;;;;;;5031266;28;20040;-72
2023/12/02 03:27:02;;;;;;;1.13;0.90;;;-0.70;99.90;;;;;;5048869;28;20043;-72
2023/12/02 03:29:28;;;;;;;1.45;1.33;;;-0.70;99.90;;;;;;5031474;28;20029;-72
2023/12/02 03:31:54;;;;;;;2.50;2.30;;;-0.70;99.90;;;;;;5034148;28;20022;-72
2023/12/02 03:34:20;;;;;;;2.17;1.88;;;-0.70;99.90;;;;;;5042518;28;20028;-72
2023/12/02 03:36:46;;;;;;;2.00;1.25;;;-0.70;99.90;;;;;;5049891;28;20029;-72
2023/12/02 03:39:15;;;;;;;2.63;1.25;;;-0.70;99.90;;;;;;5046431;28;20024;-72
2023/12/02 03:41:41;;;;;;;3.22;1.63;;;-0.70;99.90;;;;;;5007051;28;20028;-72
2023/12/02 03:44:08;;;;;;;1.27;1.13;;;-0.80;99.90;;;;;;5024309;28;20032;-72
2023/12/02 03:46:39;;;;;;;0.25;0.25;;;-0.80;99.90;;;;;;5048857;28;20492;-73
2023/12/02 03:49:05;;;;;;;2.30;2.10;;;-0.80;99.90;;;;;;5036086;28;20026;-72
2023/12/02 03:51:30;;;;;;;1.50;1.40;;;-0.80;99.90;;;;;;5048066;28;20095;-72
2023/12/02 03:53:57;;;;;;;0.17;0.17;;;-0.80;99.90;;;;;;5036828;28;20038;-72
2023/12/02 03:56:23;;;;;;;3.38;1.13;;;-0.80;99.90;;;;;;5016013;28;20497;-72
2023/12/02 03:58:50;;;;;;;1.95;1.77;;;-0.80;99.90;;;;;;5048064;28;20037;-72
2023/12/02 04:01:17;;;;;;;0.77;0.77;;;-0.80;99.90;;;;;;5027975;28;20544;-72
2023/12/02 04:03:44;;;;;;;0.88;0.88;;;-0.80;99.90;;;;;;5035058;28;20032;-72
2023/12/02 04:06:10;;;;;;;0.70;0.70;;;-0.80;99.90;;;;;;5029772;28;20112;-72
2023/12/02 04:08:36;;;;;;;1.15;0.88;;;-0.80;99.90;;;;;;5042549;28;20041;-72
2023/12/02 04:11:03;;;;;;;0.47;0.40;;;-0.80;99.90;;;;;;5023973;28;20021;-72
2023/12/02 04:13:29;;;;;;;0.68;0.68;;;-0.80;99.90;;;;;;5030888;28;20030;-73
2023/12/02 04:15:55;;;;;;;0.47;0.47;;;-0.80;99.90;;;;;;5025297;28;20052;-72
2023/12/02 04:18:21;;;;;;;0.57;0.52;;;-0.80;99.90;;;;;;5038478;28;20049;-72
2023/12/02 04:20:46;;;;;;;1.25;1.15;;;-0.80;99.90;;;;;;5020345;28;20034;-72
2023/12/02 04:23:13;;;;;;;0.75;0.75;;;-0.80;99.90;;;;;;5030942;28;20021;-72
2023/12/02 04:25:39;;;;;;;3.10;1.35;;;-0.80;99.90;;;;;;5027493;28;20482;-72
2023/12/02 04:28:05;;;;;;;4.80;1.35;;;-0.80;99.90;;;;;;5030313;28;20116;-72
2023/12/02 04:30:31;;;;;;;0.20;0.20;;;-0.80;99.90;;;;;;5037372;28;20092;-72
2023/12/02 04:32:57;;;;;;;1.35;1.25;;;-0.70;99.90;;;;;;5040570;28;20100;-72
2023/12/02 04:35:23;;;;;;;1.30;1.15;;;-0.70;99.90;;;;;;5027067;28;20104;-72
2023/12/02 04:37:49;;;;;;;0.75;0.75;;;-0.70;99.90;;;;;;5036797;28;20033;-72
2023/12/02 04:40:14;;;;;;;1.13;1.00;;;-0.70;99.90;;;;;;5035805;28;20025;-72
2023/12/02 04:42:41;;;;;;;0.50;0.50;;;-0.70;99.90;;;;;;5023133;28;20030;-72
2023/12/02 04:45:08;;;;;;;5.07;1.38;;;-0.70;99.90;;;;;;5021627;28;20054;-72
2023/12/02 04:47:38;;;;;;;2.70;0.82;;;-0.70;99.90;;;;;;5042864;28;20064;-72
2023/12/02 04:50:05;;;;;;;1.40;0.98;;;-0.70;99.90;;;;;;5033968;28;20021;-72
2023/12/02 04:52:32;;;;;;;1.23;0.95;;;-0.80;99.90;;;;;;5030160;28;20082;-72
2023/12/02 04:54:57;;;;;;;0.63;0.63;;;-0.80;99.90;;;;;;5026217;28;20034;-72
2023/12/02 04:57:23;;;;;;;1.40;0.90;;;-0.80;99.90;;;;;;5029771;28;20024;-72
2023/12/02 04:59:49;;;;;;;2.30;2.10;;;-0.70;99.90;;;;;;5039571;28;20034;-72
2023/12/02 05:02:18;;;;;;;1.27;1.17;;;-0.70;99.90;;;;;;5030918;28;20017;-72
2023/12/02 05:04:44;;;;;;;0.90;0.85;;;-0.70;99.90;;;;;;5027335;28;20111;-73
2023/12/02 05:07:10;;;;;;;3.75;1.52;;;-0.70;99.90;;;;;;5045356;28;20487;-72
2023/12/02 05:09:39;;;;;;;0.80;0.80;;;-0.70;99.90;;;;;;5010221;28;20068;-72
2023/12/02 05:12:06;;;;;;;0.95;0.60;;;-0.70;99.90;;;;;;5025865;28;20132;-72
2023/12/02 05:14:32;;;;;;;2.00;1.88;;;-0.70;99.90;;;;;;5038776;28;20040;-72
2023/12/02 05:16:58;;;;;;;1.20;1.10;;;-0.70;99.90;;;;;;5029177;28;20037;-73
2023/12/02 05:19:24;;;;;;;2.42;2.03;;;-0.70;99.90;;;;;;5029163;28;20028;-72
2023/12/02 05:21:50;;;;;;;1.02;0.60;;;-0.70;99.90;;;;;;5030241;28;20036;-72
2023/12/02 05:24:19;;;;;;;4.28;1.88;;;-0.60;99.90;;;;;;5029303;28;20112;-72
2023/12/02 05:26:44;;;;;;;1.55;1.45;;;-0.60;99.90;;;;;;5051801;28;20033;-72
2023/12/02 05:29:10;;;;;;;4.80;1.30;;;-0.70;99.90;;;;;;5030068;28;20025;-74
2023/12/02 05:31:38;;;;;;;1.83;1.75;;;-0.70;99.90;;;;;;5038982;28;20033;-72
2023/12/02 05:34:04;;;;;;;2.35;2.15;;;-0.70;99.90;;;;;;5012887;28;20056;-73
2023/12/02 05:36:30;;;;;;;1.88;1.77;;;-0.70;99.90;;;;;;5030541;28;20466;-72
2023/12/02 05:38:56;;;;;;;8.10;1.73;;;-0.70;99.90;;;;;;5031672;28;20048;-72
2023/12/02 05:41:22;;;;;;;0.52;0.52;;;-0.70;99.90;;;;;;5030973;28;20462;-73
2023/12/02 05:43:48;;;;;;;0.43;0.43;;;-0.70;99.90;;;;;;5012915;28;20044;-73
2023/12/02 05:46:18;;;;;;;4.55;1.88;;;-0.70;99.90;;;;;;5021685;28;20041;-73
2023/12/02 05:48:44;;;;;;;17.08;2.33;;;-0.70;99.90;;;;;;5049202;28;20045;-73
2023/12/02 05:51:12;;;;;;;0.65;0.65;;;-0.70;99.90;;;;;;5032169;28;20509;-73
2023/12/02 05:53:38;;;;;;;2.03;1.85;;;-0.70;99.90;;;;;;5029257;28;20082;-72
2023/12/02 05:56:05;;;;;;;2.15;1.50;;;-0.70;99.90;;;;;;5033148;28;20025;-73
2023/12/02 05:58:31;;;;;;;5.32;2.42;;;-0.70;99.90;;;;;;5020819;28;20025;-73
2023/12/02 06:00:56;;;;;;;1.85;1.75;;;-0.70;99.90;;;;;;5023310;28;20036;-73
2023/12/02 06:03:22;;;;;;;0.17;0.17;;;-0.70;99.90;;;;;;5010877;28;20032;-73
2023/12/02 06:05:48;;;;;;;0.73;0.73;;;-0.70;99.90;;;;;;5015531;28;20148;-73
2023/12/02 06:08:14;;;;;;;1.83;1.50;;;-0.70;99.90;;;;;;5028731;28;20021;-73
2023/12/02 06:10:39;;;;;;;1.75;1.15;;;-0.70;99.90;;;;;;5029913;28;20504;-72
2023/12/02 06:13:06;;;;;;;0.50;0.50;;;-0.70;99.90;;;;;;5045877;28;20029;-72
2023/12/02 06:15:31;;;;;;;1.17;1.08;;;-0.70;99.90;;;;;;5025301;28;20060;-73
2023/12/02 06:17:57;;;;;;;1.52;1.42;;;-0.60;99.90;;;;;;5029282;28;20470;-72
2023/12/02 06:20:26;;;;;;;1.98;0.55;;;-0.60;99.90;;;;;;5021557;28;20033;-73
2023/12/02 06:22:53;;;;;;;1.38;0.60;;;-0.60;99.90;;;;;;5011202;28;20033;-72
2023/12/02 06:25:19;;;;;;;0.63;0.63;;;-0.60;99.90;;;;;;5039173;28;20034;-72
2023/12/02 06:27:45;;;;;;;0.50;0.50;;;-0.60;99.90;;;;;;5004344;28;20471;-73
2023/12/02 06:30:18;;;;;;;3.78;1.98;;;-0.60;99.90;;;;;;5036013;28;20108;-72
2023/12/02 06:32:43;;;;;;;1.85;1.00;;;-0.70;99.90;;;;;;5038160;28;20037;-73
2023/12/02 06:35:10;;;;;;;1.55;0.95;;;-0.70;99.90;;;;;;5029411;28;20030;-73
2023/12/02 06:37:36;;;;;;;0.20;0.20;;;-0.60;99.90;;;;;;5031415;28;20087;-73
2023/12/02 06:40:03;;;;;;;1.52;1.42;;;-0.60;99.90;;;;;;5022327;28;20021;-73
2023/12/02 06:42:29;;;;;;;0.85;0.57;;;-0.60;99.90;;;;;;5026803;28;20029;-71
2023/12/02 06:44:55;;;;;;;0.60;0.60;;;-0.60;99.90;;;;;;5027254;28;20034;-72
2023/12/02 06:47:20;;;;;;;0.47;0.47;;;-0.60;99.90;;;;;;5019763;28;20091;-72
2023/12/02 06:49:46;;;;;;;1.05;1.00;;;-0.60;99.90;;;;;;5022489;28;20046;-72
2023/12/02 06:52:12;;;;;;;1.08;1.00;;;-0.60;99.90;;;;;;5029176;28;20021;-74
2023/12/02 06:54:38;;;;;;;0.60;0.60;;;-0.60;99.90;;;;;;5043879;28;20438;-73
2023/12/02 06:57:07;;;;;;;1.95;1.40;;;-0.60;99.90;;;;;;5037380;28;20077;-73
2023/12/02 06:59:33;;;;;;;2.08;0.52;;;-0.60;99.90;;;;;;5048268;28;20045;-72
2023/12/02 07:01:59;;;;;;;0.52;0.52;;;-0.60;99.90;;;;;;5027893;28;20060;-73
2023/12/02 07:04:25;;;;;;;0.20;0.20;;;-0.60;99.90;;;;;;5031681;28;20087;-74
2023/12/02 07:06:51;;;;;;;2.03;0.95;;;-0.60;99.90;;;;;;5042305;28;20033;-74
2023/12/02 07:09:16;;;;;;;2.22;1.65;;;-0.70;99.90;;;;;;5024470;28;20032;-72
2023/12/02 07:11:42;;;;;;;0.35;0.30;;;-0.70;99.90;;;;;;5036125;28;20064;-74
2023/12/02 07:14:08;;;;;;;0.70;0.70;;;-0.70;99.90;;;;;;5021543;28;20041;-73
2023/12/02 07:16:33;;;;;;;0.17;0.17;;;-0.70;99.90;;;;;;5043808;28;20371;-74
2023/12/02 07:18:59;;;;;;;0.20;0.20;;;-0.60;99.90;;;;;;5045514;28;20433;-73
2023/12/02 07:21:25;;;;;;;1.50;1.40;;;-0.60;99.90;;;;;;5019676;28;20463;-76
2023/12/02 07:23:51;;;;;;;2.17;1.00;;;-0.60;99.90;;;;;;5030396;28;20044;-72
2023/12/02 07:26:17;;;;;;;0.70;0.63;;;-0.60;99.90;;;;;;5036732;28;20071;-73
2023/12/02 07:28:43;;;;;;;0.40;0.40;;;-0.60;99.90;;;;;;5040364;28;20040;-74
2023/12/02 07:31:16;;;;;;;0.70;0.70;;;-0.60;99.90;;;;;;5047200;28;20021;-74
2023/12/02 07:33:42;;;;;;;0.25;0.25;;;-0.60;99.90;;;;;;5028339;28;20025;-73
2023/12/02 07:36:09;;;;;;;0.30;0.30;;;-0.60;99.90;;;;;;5023760;28;20120;-73
2023/12/02 07:38:35;;;;;;;1.98;1.45;;;-0.50;99.90;;;;;;5035944;28;20029;-73
2023/12/02 07:41:01;;;;;;;5.85;0.93;;;-0.50;99.90;;;;;;5031521;28;20072;-73
2023/12/02 07:43:27;;;;;;;0.82;0.82;;;-0.50;99.90;;;;;;5028720;28;20029;-73
2023/12/02 07:45:53;;;;;;;0.10;0.10;;;-0.50;99.90;;;;;;5043077;28;20103;-72
2023/12/02 07:48:18;;;;;;;0.65;0.65;;;-0.60;99.90;;;;;;5037673;28;20021;-73
2023/12/02 07:50:44;;;;;;;1.10;1.00;;;-0.60;99.90;;;;;;5023393;28;20132;-74
2023/12/02 07:53:10;;;;;;;1.13;0.95;;;-0.60;99.90;;;;;;5010421;28;20036;-74
2023/12/02 07:55:35;;;;;;;0.20;0.20;;;-0.60;99.90;;;;;;5044028;28;20025;-75
2023/12/02 07:58:01;;;;;;;2.55;1.13;;;-0.60;99.90;;;;;;5024791;28;20454;-75
2023/12/02 08:00:27;;;;;;;0.47;0.30;;;-0.60;99.90;;;;;;5013813;28;20033;-77
2023/12/02 08:02:53;;;;;;;2.63;0.93;;;-0.50;99.90;;;;;;5040791;28;20034;-75
2023/12/02 08:05:19;;;;;;;0.50;0.38;;;-0.50;99.90;;;;;;5001529;28;20467;-75
2023/12/02 08:07:46;;;;;;;0.10;0.10;;;-0.50;99.90;;;;;;5024155;28;20081;-75
2023/12/02 08:10:12;;;;;;;1.60;1.45;;;-0.40;99.90;;;;;;5048497;28;20017;-75
2023/12/02 08:12:38;;;;;;;0.77;0.75;;;-0.40;99.90;;;;;;5034679;28;20036;-75
2023/12/02 08:15:08;;;;;;;0.98;0.55;;;-0.50;99.90;;;;;;5039230;28;20026;-75
2023/12/02 08:17:35;;;;;;;0.40;0.40;;;-0.50;99.90;;;;;;5019190;28;20088;-75
2023/12/02 08:20:02;;;;;;;0.55;0.55;;;-0.50;99.90;;;;;;5015318;28;20048;-75
2023/12/02 08:22:29;;;;;;;4.35;0.70;;;-0.50;99.90;;;;;;5026323;28;20374;-75
2023/12/02 08:24:55;;;;;;;1.20;1.10;;;-0.40;99.90;;;;;;5046075;28;20037;-75
2023/12/02 08:27:21;;;;;;;2.05;0.95;;;-0.50;99.90;;;;;;5032204;28;20033;-75
2023/12/02 08:29:47;;;;;;;0.52;0.52;;;-0.40;99.90;;;;;;5049292;28;20028;-75
2023/12/02 08:32:13;;;;;;;1.33;0.98;;;-0.40;99.90;;;;;;5026702;28;20361;-77
2023/12/02 08:34:39;;;;;;;1.23;1.15;;;-0.40;99.90;;;;;;5038885;28;20369;-73
2023/12/02 08:37:05;;;;;;;0.40;0.40;;;-0.30;99.90;;;;;;5031291;28;20041;-73
2023/12/02 08:39:31;;;;;;;0.25;0.25;;;-0.30;99.90;;;;;;5038531;28;20020;-75
2023/12/02 08:41:56;;;;;;;0.40;0.35;;;-0.30;99.90;;;;;;5043309;28;20497;-76
2023/12/02 08:44:25;;;;;;;1.10;1.00;;;-0.30;99.90;;;;;;5025779;28;20021;-76
2023/12/02 08:46:54;;;;;;;0.75;0.75;;;-0.20;99.90;;;;;;5042806;28;20038;-76
2023/12/02 08:49:20;;;;;;;3.60;1.05;;;-0.20;99.90;;;;;;5040409;28;20083;-76
2023/12/02 08:51:47;;;;;;;0.20;0.20;;;-0.40;99.90;;;;;;5026418;28;20037;-75
2023/12/02 08:54:13;;;;;;;1.38;1.27;;;-0.30;99.90;;;;;;5028353;28;20022;-75
2023/12/02 08:56:39;;;;;;;0.77;0.77;;;-0.30;99.90;;;;;;5054818;28;20091;-75
2023/12/02 08:59:05;;;;;;;0.68;0.68;;;-0.30;99.90;;;;;;5040043;28;20033;-75
2023/12/02 09:01:31;;;;;;;0.77;0.77;;;-0.30;99.90;;;;;;5034778;28;20037;-76
2023/12/02 09:03:57;;;;;;;1.13;1.13;;;-0.30;99.90;;;;;;5031018;28;20022;-75
2023/12/02 09:06:23;;;;;;;0.55;0.38;;;-0.20;99.90;;;;;;5029731;28;20421;-76
2023/12/02 09:08:49;;;;;;;0.77;0.57;;;-0.30;99.90;;;;;;5035619;28;20036;-76
2023/12/02 09:11:14;;;;;;;4.60;2.10;;;-0.30;99.90;;;;;;5038295;28;20112;-75
2023/12/02 09:13:40;;;;;;;0.52;0.52;;;-0.30;99.90;;;;;;5037461;28;20081;-76
2023/12/02 09:16:10;;;;;;;1.05;0.95;;;-0.30;99.90;;;;;;5029897;28;20069;-75
2023/12/02 09:18:37;;;;;;;0.95;0.95;;;-0.30;99.90;;;;;;5028862;28;20036;-57
2023/12/02 09:21:17;;;;;;;0.38;0.38;;;1.20;99.90;;;;;;5014552;28;20049;-68
2023/12/02 09:23:44;;;;;;;3.92;1.30;;;2.00;99.90;;;;;;5026338;28;20043;-60
2023/12/02 09:26:33;;;;;;;1.05;1.05;;;2.40;99.90;;;;;;5037480;28;20033;-76
2023/12/02 09:28:59;;;;;;;2.10;1.05;;;1.90;99.90;;;;;;5050433;28;20033;-75
2023/12/02 09:31:27;;;;;;;2.38;0.52;;;1.00;99.90;;;;;;5013016;28;20037;-76
2023/12/02 09:34:04;;;;;;;0.47;0.47;;;0.50;99.90;;;;;;5029679;28;20485;-73
2023/12/02 09:36:39;;;;;;;0.73;0.57;;;0.20;99.90;;;;;;5033441;28;20060;-75
2023/12/02 09:39:17;;;;;;;0.85;0.82;;;0.00;99.90;;;;;;5053809;28;20048;-75
2023/12/02 09:41:49;;;;;;;1.70;0.82;;;-0.10;99.90;;;;;;5042992;28;20033;-75
2023/12/02 09:44:32;;;;;;;1.10;0.98;;;-0.20;99.90;;;;;;5021981;28;20045;-75
2023/12/02 09:47:14;;;;;;;0.50;0.50;;;-0.30;99.90;;;;;;5048182;28;20052;-75
2023/12/02 09:50:33;;;;;;;1.50;1.38;;;-0.40;99.90;;;;;;5048592;28;20120;-75
2023/12/02 09:53:19;;;;;;;0.57;0.57;;;-0.40;99.90;;;;;;5027386;28;20053;-75
2023/12/02 09:55:59;;;;;;;1.50;1.33;;;-0.40;99.90;;;;;;5031185;28;20056;-75
2023/12/02 09:58:41;;;;;;;2.53;2.05;;;-0.50;99.90;;;;;;5033593;28;20029;-73
2023/12/02 10:01:25;;;;;;;0.68;0.68;;;-0.50;99.90;;;;;;5030572;28;20091;-74
2023/12/02 10:04:32;;;;;;;0.60;0.60;;;-0.50;99.90;;;;;;5034857;28;20379;-74
2023/12/02 10:07:10;;;;;;;0.35;0.35;;;-0.50;99.90;;;;;;5015265;28;20030;-74
2023/12/02 10:09:58;;;;;;;2.13;1.77;;;-0.50;99.90;;;;;;5023452;28;20473;-74
2023/12/02 10:12:59;;;;;;;1.38;0.70;;;-0.40;99.90;;;;;;5030626;28;20068;-74
2023/12/02 10:15:34;;;;;;;1.60;0.80;;;-0.40;99.90;;;;;;5032730;28;20029;-74
2023/12/02 10:18:15;;;;;;;0.60;0.60;;;-0.40;99.90;;;;;;5016780;28;20048;-74
2023/12/02 10:20:43;;;;;;;2.88;0.88;;;-0.40;99.90;;;;;;5032113;28;20385;-73
2023/12/02 10:24:05;;;;;;;1.27;0.60;;;-0.40;99.90;;;;;;5014561;28;20041;-71
2023/12/02 10:26:49;;;;;;;;;;;-0.30;99.90;;;;;;5021458;28;20054;-70
2023/12/02 10:29:28;;;;;;;0.40;0.40;;;-0.30;99.90;;;;;;5033515;28;19952;-72
2023/12/02 10:32:11;;;;;;;0.30;0.30;;;-0.30;99.90;;;;;;5031373;28;20528;-74
2023/12/02 10:34:49;;;;;;;1.27;1.17;;;-0.20;99.90;;;;;;5029646;28;20049;-73
2023/12/02 10:37:15;;;;;;;2.15;1.95;;;-0.10;99.90;;;;;;5033238;28;20528;-73
2023/12/02 10:39:43;;;;;;;2.13;1.90;;;-0.10;99.90;;;;;;5028546;28;20017;-73
2023/12/02 10:42:36;;;;;;;0.38;0.38;;;-0.10;99.90;;;;;;5034973;28;20100;-74
2023/12/02 10:45:08;;;;;;;0.93;0.93;;;-0.20;99.90;;;;;;5036185;28;20037;-74
2023/12/02 10:47:35;;;;;;;0.32;0.25;;;-0.10;99.90;;;;;;5034030;28;20120;-72
2023/12/02 10:50:03;;;;;;;3.65;0.65;;;-0.20;99.90;;;;;;5008311;28;20036;-75
2023/12/02 10:52:31;;;;;;;2.80;0.90;;;-0.30;99.90;;;;;;5025105;28;20029;-73
2023/12/02 10:54:59;;;;;;;1.02;1.02;;;-0.40;99.90;;;;;;5039436;28;20028;-73
2023/12/02 10:57:27;;;;;;;2.45;1.02;;;-0.30;99.90;;;;;;5027051;28;20029;-73
2023/12/02 11:00:11;;;;;;;0.22;0.22;;;-0.40;99.90;;;;;;5044440;28;20620;-73
2023/12/02 11:03:02;;;;;;;2.78;0.60;;;-0.40;99.90;;;;;;5043808;28;20029;-75
2023/12/02 11:05:55;;;;;;;0.73;0.73;;;-0.50;99.90;;;;;;5029327;28;20056;-75
2023/12/02 11:08:53;;;;;;;0.85;0.85;;;-0.50;99.90;;;;;;4998069;28;20033;-74
2023/12/02 11:11:56;;;;;;;1.15;0.93;;;-0.40;99.90;;;;;;5042390;28;20500;-75
2023/12/02 11:14:24;;;;;;;4.53;1.10;;;-0.40;99.90;;;;;;5050607;28;20024;-75
2023/12/02 11:17:21;;;;;;;0.75;0.75;;;-0.40;99.90;;;;;;5043902;28;20489;-74
2023/12/02 11:20:14;;;;;;;0.63;0.63;;;-0.50;99.90;;;;;;5043431;28;20029;-74
2023/12/02 11:22:55;;;;;;;0.85;0.85;;;-0.50;99.90;;;;;;5032457;28;20037;-74
2023/12/02 11:25:46;;;;;;;0.52;0.43;;;-0.50;99.90;;;;;;5027355;28;20100;-73
2023/12/02 11:28:36;;;;;;;1.30;1.23;;;-0.40;99.90;;;;;;5033068;28;20040;-72
2023/12/02 11:31:15;;;;;;;0.88;0.88;;;-0.30;99.90;;;;;;5013390;28;20045;-73
2023/12/02 11:34:18;;;;;;;0.38;0.38;;;-0.30;99.90;;;;;;5014815;28;20046;-72
2023/12/02 11:37:13;;;;;;;0.70;0.63;;;-0.30;99.90;;;;;;5021638;28;20592;-72
2023/12/02 11:39:39;;;;;;;0.30;0.30;;;-0.30;99.90;;;;;;5003184;28;20054;-72
2023/12/02 11:42:29;;;;;;;2.45;2.25;;;-0.30;99.90;;;;;;5028441;28;20044;-74
2023/12/02 11:45:19;;;;;;;2.13;1.92;;;-0.30;99.90;;;;;;5022401;28;20029;-73
2023/12/02 11:48:11;;;;;;;0.22;0.22;;;-0.40;99.90;;;;;;5015091;28;20033;-73
2023/12/02 11:51:01;;;;;;;0.70;0.65;;;-0.40;99.90;;;;;;5012682;28;20137;-73
2023/12/02 11:53:44;;;;;;;0.47;0.47;;;-0.30;99.90;;;;;;5046528;28;20517;-73
2023/12/02 11:56:15;;;;;;;0.20;0.20;;;-0.40;99.90;;;;;;5026008;28;20035;-72
2023/12/02 11:59:04;;;;;;;0.20;0.20;;;-0.40;99.90;;;;;;5032931;28;20061;-72
2023/12/02 12:01:42;;;;;;;0.45;0.45;;;-0.40;99.90;;;;;;5032248;28;20027;-72
2023/12/02 12:04:33;;;;;;;0.75;0.70;;;-0.40;99.90;;;;;;5029254;28;20103;-72
2023/12/02 12:07:45;;;;;;;0.22;0.22;;;-0.50;99.90;;;;;;5022797;28;20033;-72
2023/12/02 12:10:28;;;;;;;0.80;0.80;;;-0.40;99.90;;;;;;5026539;28;20039;-72
2023/12/02 12:12:56;;;;;;;0.30;0.30;;;-0.30;99.90;;;;;;5033544;28;20083;-71
2023/12/02 12:15:22;;;;;;;0.47;0.47;;;-0.30;99.90;;;;;;5031577;28;20026;-71
2023/12/02 12:17:47;;;;;;;0.35;0.35;;;-0.30;99.90;;;;;;5031815;28;20025;-73
2023/12/02 12:20:22;;;;;;;2.35;1.15;;;-0.30;99.90;;;;;;5040394;28;20032;-72
2023/12/02 12:22:48;;;;;;;0.40;0.40;;;-0.40;99.90;;;;;;5030064;28;20033;-73
2023/12/02 12:25:15;;;;;;;0.50;0.50;;;-0.40;99.90;;;;;;5034613;28;20445;-73
2023/12/02 12:27:41;;;;;;;0.20;0.20;;;-0.40;99.90;;;;;;5020613;28;20512;-72
2023/12/02 12:30:08;;;;;;;0.35;0.35;;;-0.50;99.90;;;;;;5053272;28;20444;-73
2023/12/02 12:32:35;;;;;;;1.77;1.67;;;-0.60;99.90;;;;;;5038353;28;20045;-73
2023/12/02 12:35:10;;;;;;;0.30;0.30;;;-0.50;99.90;;;;;;5012057;28;20026;-73
2023/12/02 12:37:36;;;;;;;0.30;0.30;;;-0.50;99.90;;;;;;5039769;28;20037;-74
2023/12/02 12:40:03;;;;;;;0.68;0.68;;;-0.50;99.90;;;;;;5039966;28;20183;-72
2023/12/02 12:42:29;;;;;;;1.88;1.20;;;-0.50;99.90;;;;;;5032157;28;20014;-73
2023/12/02 12:44:59;;;;;;;0.60;0.60;;;-0.40;99.90;;;;;;5040003;28;20044;-73
2023/12/02 12:47:25;;;;;;;0.40;0.40;;;-0.40;99.90;;;;;;5032008;28;20056;-73
2023/12/02 12:49:54;;;;;;;0.35;0.35;;;-0.30;99.90;;;;;;5030798;28;20107;-73
2023/12/02 12:52:21;;;;;;;0.30;0.30;;;-0.30;99.90;;;;;;5025851;28;20026;-73
2023/12/02 12:54:57;;;;;;;1.15;1.05;;;-0.40;99.90;;;;;;5020470;28;20033;-73
2023/12/02 12:57:47;;;;;;;0.30;0.30;;;-0.40;99.90;;;;;;5023885;28;20057;-73
2023/12/02 13:00:16;;;;;;;1.45;1.35;;;-0.50;99.90;;;;;;5022650;28;20025;-72
2023/12/02 13:03:29;;;;;;;1.13;0.80;;;-0.60;99.90;;;;;;5031838;28;20037;-73